Time;durP1;ratioP1;P1;durP2;ratioP2;P2;SDS_P1;SDS_P2;PMS_P1;PMS_P2;Temp;Humidity;BMP_temperature;BMP_pressure;BME280_temperature;BME280_humidity;BME280_pressure;Samples;Min_cycle;Max_cycle;Signal;HPM_P1;HPM_P2
2022/12/06 00:00:33;;;;;;;26.40;10.70;;;;;;;2.51;100.00;100920.41;6495157;22;20003;-77
2022/12/06 00:03:03;;;;;;;25.27;10.27;;;;;;;2.53;100.00;100923.84;6496396;22;20023;-78
2022/12/06 00:05:34;;;;;;;25.42;9.88;;;;;;;2.49;100.00;100922.13;6496556;22;20064;-77
2022/12/06 00:08:04;;;;;;;28.35;10.63;;;;;;;2.60;100.00;100915.28;6496156;22;20362;-77
2022/12/06 00:10:35;;;;;;;25.60;9.85;;;;;;;2.55;100.00;100911.84;6496671;22;20026;-77
2022/12/06 00:13:05;;;;;;;21.48;9.18;;;;;;;2.59;100.00;100912.69;6495809;22;20011;-77
2022/12/06 00:15:36;;;;;;;21.52;9.73;;;;;;;2.54;100.00;100911.84;6495594;22;20006;-78
2022/12/06 00:18:06;;;;;;;20.15;9.15;;;;;;;2.50;100.00;100917.84;6496032;22;20466;-76
2022/12/06 00:20:37;;;;;;;20.92;8.98;;;;;;;2.44;100.00;100912.66;6496543;22;20411;-77
2022/12/06 00:23:07;;;;;;;22.52;9.07;;;;;;;2.44;100.00;100912.66;6496182;22;20251;-78
2022/12/06 00:25:38;;;;;;;21.70;9.07;;;;;;;2.40;100.00;100916.09;6496027;22;20301;-77
2022/12/06 00:28:08;;;;;;;23.75;9.85;;;;;;;2.43;100.00;100908.34;6496188;22;19992;-77
2022/12/06 00:30:38;;;;;;;21.10;8.95;;;;;;;2.44;100.00;100907.50;6496094;22;19999;-77
2022/12/06 00:33:08;;;;;;;24.17;9.32;;;;;;;2.45;100.00;100906.66;6496554;22;20340;-77
2022/12/06 00:35:39;;;;;;;21.15;9.05;;;;;;;2.49;100.00;100906.66;6495918;22;20000;-77
2022/12/06 00:38:09;;;;;;;17.35;8.18;;;;;;;2.54;100.00;100906.69;6495710;22;19996;-78
2022/12/06 00:40:39;;;;;;;19.63;9.18;;;;;;;2.53;100.00;100899.78;6485140;22;20255;-77
2022/12/06 00:43:09;;;;;;;17.40;8.65;;;;;;;2.49;100.00;100905.81;6496222;22;19999;-76
2022/12/06 00:45:40;;;;;;;20.05;9.15;;;;;;;2.52;100.00;100898.09;6497301;22;20035;-77
2022/12/06 00:48:10;;;;;;;17.13;8.57;;;;;;;2.44;100.00;100898.06;6488310;22;19998;-77
2022/12/06 00:50:40;;;;;;;15.85;8.30;;;;;;;2.43;100.00;100900.63;6499966;22;20061;-77
2022/12/06 00:53:12;;;;;;;17.15;8.85;;;;;;;2.45;100.00;100902.38;6463056;22;20083;-77
2022/12/06 00:55:43;;;;;;;18.52;8.98;;;;;;;2.57;100.00;100901.50;6489072;22;19999;-77
2022/12/06 00:58:14;;;;;;;17.17;8.75;;;;;;;2.54;100.00;100899.78;6461126;22;20435;-77
2022/12/06 01:00:45;;;;;;;18.55;9.23;;;;;;;2.52;100.00;100898.91;6461937;22;20000;-77
2022/12/06 01:03:15;;;;;;;14.45;7.90;;;;;;;2.53;100.00;100894.63;6489158;22;20004;-77
2022/12/06 01:05:47;;;;;;;18.55;8.40;;;;;;;2.57;100.00;100898.94;6499600;22;20031;-77
2022/12/06 01:08:18;;;;;;;18.45;8.90;;;;;;;2.52;100.00;100903.25;6499629;22;20533;-77
2022/12/06 01:10:52;;;;;;;15.07;8.18;;;;;;;2.46;100.00;100896.34;6461357;22;20004;-77
2022/12/06 01:13:23;;;;;;;14.40;8.43;;;;;;;2.40;100.00;100898.91;6462549;22;20004;-77
2022/12/06 01:15:54;;;;;;;14.23;8.30;;;;;;;2.36;100.00;100897.16;6488614;22;20230;-78
2022/12/06 01:18:24;;;;;;;14.70;7.75;;;;;;;2.46;100.00;100890.31;6499353;22;20003;-76
2022/12/06 01:20:54;;;;;;;14.27;8.88;;;;;;;2.53;100.00;100882.59;6499750;22;20087;-78
2022/12/06 01:23:24;;;;;;;13.48;8.30;;;;;;;2.39;100.00;100888.59;6499445;22;20049;-77
2022/12/06 01:25:55;;;;;;;13.23;7.80;;;;;;;2.44;100.00;100892.03;6488814;22;19999;-78
2022/12/06 01:28:25;;;;;;;12.75;7.38;;;;;;;2.38;100.00;100886.88;6499326;22;20458;-77
2022/12/06 01:30:55;;;;;;;14.43;8.25;;;;;;;2.38;100.00;100892.03;6499065;22;20006;-77
2022/12/06 01:33:26;;;;;;;14.68;8.52;;;;;;;2.48;100.00;100886.88;6498768;22;20334;-77
2022/12/06 01:35:56;;;;;;;15.65;8.20;;;;;;;2.37;100.00;100885.16;6499189;22;20000;-77
2022/12/06 01:38:26;;;;;;;15.50;9.10;;;;;;;2.45;100.00;100883.44;6498159;22;20408;-77
2022/12/06 01:40:57;;;;;;;15.35;8.60;;;;;;;2.39;100.00;100880.84;6499125;22;20075;-77
2022/12/06 01:43:29;;;;;;;15.00;8.68;;;;;;;2.52;100.00;100875.72;6488978;22;20027;-77
2022/12/06 01:46:16;;;;;;;14.88;8.95;;;;;;;2.46;100.00;100877.41;6492919;22;20292;-77
2022/12/06 01:48:50;;;;;;;18.58;8.75;;;;;;;2.46;100.00;100885.16;6460201;22;20014;-77
2022/12/06 01:51:22;;;;;;;14.20;8.27;;;;;;;2.46;100.00;100874.84;6461853;22;20008;-77
2022/12/06 01:53:53;;;;;;;13.93;8.55;;;;;;;2.45;100.00;100875.69;6498807;22;20014;-77
2022/12/06 01:56:24;;;;;;;15.65;8.63;;;;;;;2.36;100.00;100873.13;6498829;22;20050;-77
2022/12/06 01:58:56;;;;;;;15.75;8.95;;;;;;;2.47;100.00;100867.13;6486605;22;20419;-77
2022/12/06 02:01:28;;;;;;;16.85;8.93;;;;;;;2.41;100.00;100871.41;6498270;22;19996;-77
2022/12/06 02:04:02;;;;;;;14.48;8.52;;;;;;;2.34;100.00;100864.53;6497703;22;20061;-75
2022/12/06 02:06:33;;;;;;;13.25;8.07;;;;;;;2.44;100.00;100871.41;6497580;22;20068;-77
2022/12/06 02:09:06;;;;;;;13.75;8.20;;;;;;;2.39;100.00;100862.81;6459147;22;20374;-76
2022/12/06 02:11:38;;;;;;;14.82;8.27;;;;;;;2.25;100.00;100867.06;6497419;22;20007;-77
2022/12/06 02:14:14;;;;;;;17.15;8.63;;;;;;;2.34;100.00;100860.22;6497295;22;20007;-76
2022/12/06 02:17:10;;;;;;;14.93;8.45;;;;;;;2.33;100.00;100855.06;6497159;22;20026;-76
2022/12/06 02:19:59;;;;;;;15.25;8.82;;;;;;;2.33;100.00;100862.81;6486748;22;20004;-76
2022/12/06 02:22:44;;;;;;;17.48;8.95;;;;;;;2.33;100.00;100855.06;6497821;22;20000;-77
2022/12/06 02:25:36;;;;;;;17.23;9.45;;;;;;;2.38;100.00;100843.03;6497030;22;20074;-77
2022/12/06 02:28:40;;;;;;;14.00;8.05;;;;;;;2.29;100.00;100841.31;6459390;22;20049;-77
2022/12/06 02:31:44;;;;;;;17.25;9.25;;;;;;;2.21;100.00;100843.03;6497345;22;20335;-77
2022/12/06 02:34:21;;;;;;;18.05;8.80;;;;;;;2.39;100.00;100842.16;6458986;22;20090;-76
2022/12/06 02:37:06;;;;;;;16.63;9.15;;;;;;;2.28;100.00;100841.28;6459024;22;20011;-77
2022/12/06 02:39:56;;;;;;;15.35;8.80;;;;;;;2.36;100.00;100845.59;6497097;22;20000;-77
2022/12/06 02:42:32;;;;;;;15.77;8.45;;;;;;;2.32;100.00;100845.63;6497032;22;20006;-77
2022/12/06 02:45:09;;;;;;;13.90;8.02;;;;;;;2.37;100.00;100844.75;6496490;22;20038;-77
2022/12/06 02:47:41;;;;;;;15.32;8.65;;;;;;;2.39;100.00;100847.34;6495403;22;20327;-77
2022/12/06 02:50:17;;;;;;;18.88;9.20;;;;;;;2.32;100.00;100840.47;6458598;22;20231;-77
2022/12/06 02:52:52;;;;;;;15.65;8.80;;;;;;;2.35;100.00;100846.47;6458960;22;20081;-77
2022/12/06 02:55:23;;;;;;;;;;;;;;;2.35;100.00;100846.47;6497515;22;20004;-76
2022/12/06 02:57:56;;;;;;;14.88;8.27;;;;;;;2.33;100.00;100837.88;6485232;22;20347;-77
2022/12/06 03:00:32;;;;;;;15.27;9.18;;;;;;;2.40;100.00;100841.31;6496603;22;20023;-76
2022/12/06 03:03:24;;;;;;;17.15;9.13;;;;;;;2.45;100.00;100839.59;6496300;22;19999;-77
2022/12/06 03:06:00;;;;;;;16.73;9.18;;;;;;;2.43;100.00;100837.03;6458326;22;20343;-77
2022/12/06 03:08:59;;;;;;;18.05;9.02;;;;;;;2.37;100.00;100831.00;6496071;22;20006;-77
2022/12/06 03:11:53;;;;;;;18.75;9.50;;;;;;;2.52;100.00;100828.44;6496884;22;20438;-77
2022/12/06 03:14:27;;;;;;;17.13;10.07;;;;;;;2.51;100.00;100830.16;6496911;22;20450;-76
2022/12/06 03:17:15;;;;;;;20.08;10.00;;;;;;;2.46;100.00;100828.41;6496215;22;19999;-77
2022/12/06 03:19:53;;;;;;;18.58;9.98;;;;;;;2.39;100.00;100822.41;6457443;22;20008;-77
2022/12/06 03:22:35;;;;;;;17.63;10.13;;;;;;;2.31;100.00;100820.69;6486188;22;20072;-76
2022/12/06 03:25:07;;;;;;;19.45;10.48;;;;;;;2.31;100.00;100823.28;6486390;22;20006;-77
2022/12/06 03:27:40;;;;;;;19.85;9.90;;;;;;;2.32;100.00;100820.66;6496057;22;20461;-77
2022/12/06 03:30:12;;;;;;;16.63;9.18;;;;;;;2.31;100.00;100815.53;6496251;22;20324;-77
2022/12/06 03:32:47;;;;;;;19.05;10.30;;;;;;;2.25;100.00;100818.09;6458740;22;20524;-77
2022/12/06 03:35:21;;;;;;;;;;;;;;;2.32;100.00;100814.69;6497058;22;20007;-77
2022/12/06 03:38:00;;;;;;;20.63;10.18;;;;;;;2.41;100.00;100820.69;6496071;22;20166;-77
2022/12/06 03:40:35;;;;;;;21.13;10.20;;;;;;;2.35;100.00;100812.09;6496964;22;20000;-77
2022/12/06 03:43:06;;;;;;;;;;;;;;;2.32;100.00;100819.84;6497077;22;20008;-77
2022/12/06 03:46:00;;;;;;;17.30;9.25;;;;;;;2.38;100.00;100812.97;6456740;22;19957;-77
2022/12/06 03:48:36;;;;;;;18.17;10.07;;;;;;;2.42;100.00;100816.38;6495137;22;20435;-77
2022/12/06 03:51:11;;;;;;;19.38;9.63;;;;;;;2.31;100.00;100816.38;6496083;22;20455;-77
2022/12/06 03:53:48;;;;;;;17.52;9.57;;;;;;;2.42;100.00;100811.22;6496447;22;20004;-78
2022/12/06 03:56:20;;;;;;;17.80;9.98;;;;;;;2.47;100.00;100812.13;6457583;22;20022;-76
2022/12/06 03:58:51;;;;;;;17.20;9.90;;;;;;;2.33;100.00;100812.06;6458635;22;20000;-77
2022/12/06 04:01:21;;;;;;;16.33;9.88;;;;;;;2.39;100.00;100806.94;6458622;22;20065;-77
2022/12/06 04:03:51;;;;;;;17.20;9.70;;;;;;;2.32;100.00;100809.53;6496299;22;20090;-77
2022/12/06 04:06:22;;;;;;;18.83;10.18;;;;;;;2.48;100.00;100804.34;6495649;22;20003;-77
2022/12/06 04:08:52;;;;;;;18.05;9.07;;;;;;;2.47;100.00;100812.97;6495297;22;19999;-77
2022/12/06 04:11:22;;;;;;;17.33;9.63;;;;;;;2.58;100.00;100800.06;6486071;22;20070;-76
2022/12/06 04:13:53;;;;;;;15.90;9.05;;;;;;;2.45;100.00;100803.50;6496263;22;19999;-77
2022/12/06 04:19:12;;;;;;;18.65;9.95;;;;;;;2.41;100.00;100804.34;6495978;22;20007;-78
2022/12/06 04:24:31;;;;;;;18.05;9.70;;;;;;;2.34;100.00;100792.31;6496006;22;20073;-77
2022/12/06 04:41:07;;;;;;;14.93;9.27;;;;;;;2.49;100.00;100784.59;6495553;22;20472;-77
2022/12/06 04:43:43;;;;;;;14.90;8.30;;;;;;;2.42;100.00;100781.16;6495220;22;20060;-77
2022/12/06 04:46:17;;;;;;;14.65;8.57;;;;;;;2.32;100.00;100783.75;6495605;22;20000;-76
2022/12/06 04:48:47;;;;;;;13.60;8.05;;;;;;;2.29;100.00;100783.72;6494816;22;20059;-77
2022/12/06 04:51:19;;;;;;;15.10;8.30;;;;;;;2.29;100.00;100782.00;6484751;22;20423;-77
2022/12/06 04:53:49;;;;;;;13.05;8.35;;;;;;;2.32;100.00;100784.56;6483920;22;19999;-77
2022/12/06 04:56:19;;;;;;;12.20;7.90;;;;;;;2.46;100.00;100779.41;6494051;22;20389;-75
2022/12/06 04:58:50;;;;;;;12.88;8.13;;;;;;;2.32;100.00;100778.59;6459032;22;20008;-76
2022/12/06 05:01:20;;;;;;;12.65;7.57;;;;;;;2.40;100.00;100772.56;6484245;22;19999;-76
2022/12/06 05:03:50;;;;;;;12.93;7.80;;;;;;;2.30;100.00;100772.56;6495992;22;20474;-77
2022/12/06 05:06:21;;;;;;;12.77;7.93;;;;;;;2.31;100.00;100769.13;6494721;22;20010;-76
2022/12/06 05:08:51;;;;;;;13.73;7.70;;;;;;;2.30;100.00;100764.84;6484964;22;19996;-77
2022/12/06 05:11:21;;;;;;;15.18;8.05;;;;;;;2.23;100.00;100770.81;6483777;22;20050;-78
2022/12/06 05:13:51;;;;;;;12.75;8.35;;;;;;;2.26;100.00;100773.41;6485156;22;20454;-76
2022/12/06 05:16:22;;;;;;;13.43;8.45;;;;;;;2.19;100.00;100769.09;6495250;22;20038;-77
2022/12/06 05:18:52;;;;;;;12.95;8.13;;;;;;;2.28;100.00;100769.09;6495081;22;20090;-78
2022/12/06 05:21:24;;;;;;;14.30;8.13;;;;;;;2.20;100.00;100763.09;6495958;22;20004;-76
2022/12/06 05:23:55;;;;;;;13.65;7.90;;;;;;;2.25;100.00;100756.22;6496023;22;20004;-74
2022/12/06 05:26:27;;;;;;;11.93;7.93;;;;;;;2.10;100.00;100757.06;6495489;22;20057;-76
2022/12/06 05:28:58;;;;;;;11.60;7.47;;;;;;;2.34;100.00;100756.22;6457369;22;20071;-78
2022/12/06 05:31:28;;;;;;;12.35;7.45;;;;;;;2.29;100.00;100752.78;6458715;22;20568;-77
2022/12/06 05:33:58;;;;;;;11.95;7.38;;;;;;;2.32;100.00;100760.53;6498270;22;20327;-76
2022/12/06 05:36:29;;;;;;;11.25;7.38;;;;;;;2.29;100.00;100751.06;6498032;22;20030;-77
2022/12/06 05:38:59;;;;;;;12.27;7.78;;;;;;;2.24;100.00;100757.06;6496567;22;20087;-77
2022/12/06 05:41:29;;;;;;;14.30;7.95;;;;;;;2.25;100.00;100740.75;6497327;22;19999;-77
2022/12/06 05:44:00;;;;;;;11.70;7.28;;;;;;;2.40;100.00;100751.06;6486917;22;20011;-77
2022/12/06 05:46:30;;;;;;;12.27;8.05;;;;;;;2.33;100.00;100755.34;6459444;22;20003;-77
2022/12/06 05:49:00;;;;;;;10.82;6.72;;;;;;;2.29;100.00;100747.63;6484308;22;20002;-77
2022/12/06 05:51:30;;;;;;;13.00;7.60;;;;;;;2.30;100.00;100747.63;6498314;22;20279;-77
2022/12/06 05:54:03;;;;;;;12.52;7.55;;;;;;;2.21;100.00;100746.75;6496945;22;20149;-76
2022/12/06 05:56:34;;;;;;;11.48;7.05;;;;;;;2.30;100.00;100742.47;6496977;22;20003;-77
2022/12/06 05:59:04;;;;;;;12.10;7.82;;;;;;;2.34;100.00;100748.50;6497441;22;20015;-77
2022/12/06 06:01:35;;;;;;;12.10;7.68;;;;;;;2.31;100.00;100748.50;6460003;22;20014;-77
2022/12/06 06:04:05;;;;;;;12.63;7.25;;;;;;;2.38;100.00;100737.31;6497359;22;20003;-77
2022/12/06 06:06:35;;;;;;;11.60;7.40;;;;;;;2.24;100.00;100739.91;6496499;22;20049;-77
2022/12/06 06:09:06;;;;;;;13.50;8.05;;;;;;;2.14;100.00;100742.47;6497253;22;20003;-77
2022/12/06 06:11:36;;;;;;;13.60;7.90;;;;;;;2.22;100.00;100739.06;6497702;22;20316;-77
2022/12/06 06:14:06;;;;;;;12.65;7.75;;;;;;;2.30;100.00;100732.16;6497456;22;19999;-77
2022/12/06 06:16:36;;;;;;;12.48;7.57;;;;;;;2.21;100.00;100733.88;6496756;22;19999;-77
2022/12/06 06:19:07;;;;;;;13.30;8.18;;;;;;;2.18;100.00;100739.88;6496422;22;20011;-77
2022/12/06 06:21:37;;;;;;;14.00;7.93;;;;;;;2.22;100.00;100739.06;6486930;22;20083;-78
2022/12/06 06:24:07;;;;;;;13.50;7.40;;;;;;;2.26;100.00;100734.72;6484983;22;20006;-77
2022/12/06 06:26:38;;;;;;;11.82;7.57;;;;;;;2.36;100.00;100739.03;6486046;22;20049;-77
2022/12/06 06:29:08;;;;;;;12.75;7.30;;;;;;;2.35;100.00;100738.16;6459600;22;20050;-77
2022/12/06 06:31:38;;;;;;;11.55;7.18;;;;;;;2.23;100.00;100737.31;6485341;22;20003;-77
2022/12/06 06:34:09;;;;;;;12.15;7.22;;;;;;;2.24;100.00;100736.44;6495799;22;20514;-77
2022/12/06 06:36:39;;;;;;;12.15;7.15;;;;;;;2.35;100.00;100732.16;6496649;22;20003;-76
2022/12/06 06:39:09;;;;;;;12.30;7.43;;;;;;;2.25;100.00;100733.88;6483770;22;20496;-77
2022/12/06 06:41:40;;;;;;;11.48;6.68;;;;;;;2.22;100.00;100741.63;6497341;22;20003;-77
2022/12/06 06:44:10;;;;;;;11.50;7.28;;;;;;;2.31;100.00;100735.59;6483804;22;20038;-77
2022/12/06 06:46:41;;;;;;;12.65;7.18;;;;;;;2.34;100.00;100735.59;6483409;22;20038;-77
2022/12/06 06:49:11;;;;;;;10.43;6.55;;;;;;;2.29;100.00;100732.16;6497227;22;19995;-77
2022/12/06 06:51:41;;;;;;;11.90;6.68;;;;;;;2.26;100.00;100727.88;6496474;22;20057;-77
2022/12/06 06:54:12;;;;;;;16.05;7.70;;;;;;;2.28;100.00;100738.16;6496063;22;20386;-76
2022/12/06 06:56:42;;;;;;;12.52;6.95;;;;;;;2.40;100.00;100736.47;6495958;22;20439;-76
2022/12/06 06:59:12;;;;;;;11.95;6.93;;;;;;;2.19;100.00;100739.03;6484605;22;20003;-76
2022/12/06 07:01:43;;;;;;;12.32;6.35;;;;;;;2.30;100.00;100746.78;6485439;22;20090;-76
2022/12/06 07:04:13;;;;;;;10.75;6.43;;;;;;;2.33;100.00;100746.78;6497610;22;20255;-76
2022/12/06 07:06:43;;;;;;;14.20;7.20;;;;;;;2.15;100.00;100746.78;6496315;22;20011;-75
2022/12/06 07:09:14;;;;;;;11.35;6.63;;;;;;;2.14;100.00;100742.47;6496543;22;20195;-77
2022/12/06 07:11:44;;;;;;;10.75;6.65;;;;;;;2.15;100.00;100746.78;6497701;22;20616;-76
2022/12/06 07:14:14;;;;;;;10.60;6.35;;;;;;;2.13;100.00;100751.91;6497224;22;20011;-76
2022/12/06 07:16:45;;;;;;;13.32;6.57;;;;;;;2.16;100.00;100751.91;6496627;22;20003;-76
2022/12/06 07:19:15;;;;;;;10.57;6.82;;;;;;;2.17;100.00;100758.78;6458734;22;20537;-77
2022/12/06 07:21:45;;;;;;;11.90;6.47;;;;;;;2.20;100.00;100755.34;6498142;22;20427;-76
2022/12/06 07:24:15;;;;;;;11.63;6.82;;;;;;;2.19;100.00;100759.63;6497115;22;20082;-77
2022/12/06 07:26:46;;;;;;;11.27;7.07;;;;;;;2.14;100.00;100763.94;6496370;22;20061;-76
2022/12/06 07:29:16;;;;;;;11.60;6.35;;;;;;;2.20;100.00;100757.94;6496154;22;19995;-77
2022/12/06 07:31:46;;;;;;;12.80;7.30;;;;;;;2.28;100.00;100761.38;6495757;22;20036;-77
2022/12/06 07:34:17;;;;;;;10.80;7.20;;;;;;;2.21;100.00;100755.38;6495833;22;20006;-76
2022/12/06 07:36:47;;;;;;;12.50;7.03;;;;;;;2.11;100.00;100763.06;6496425;22;20338;-77
2022/12/06 07:39:17;;;;;;;11.00;6.60;;;;;;;2.17;100.00;100773.41;6458341;22;20007;-77
2022/12/06 07:47:26;;;;;;;10.05;6.38;;;;;;;2.26;100.00;100760.50;6495726;22;20017;-75
2022/12/06 07:49:56;;;;;;;9.82;6.40;;;;;;;2.44;100.00;100758.81;6486628;22;20011;-77
2022/12/06 07:52:31;;;;;;;10.88;6.80;;;;;;;2.36;100.00;100760.50;6497487;22;20042;-75
2022/12/06 07:55:03;;;;;;;11.35;6.30;;;;;;;2.36;100.00;100754.50;6495733;22;20053;-77
2022/12/06 07:57:34;;;;;;;10.48;6.30;;;;;;;2.35;100.00;100758.78;6496282;22;20022;-78
2022/12/06 08:00:07;;;;;;;11.27;6.97;;;;;;;2.28;100.00;100753.63;6496929;22;20423;-77
2022/12/06 08:02:38;;;;;;;9.63;5.90;;;;;;;2.39;100.00;100750.22;6496834;22;19996;-76
2022/12/06 08:05:08;;;;;;;10.60;6.47;;;;;;;2.42;100.00;100749.34;6495733;22;20068;-77
2022/12/06 08:07:39;;;;;;;10.27;6.30;;;;;;;2.39;100.00;100755.38;6496153;22;19999;-77
2022/12/06 08:10:09;;;;;;;10.23;6.47;;;;;;;2.55;100.00;100756.22;6458617;22;20200;-76
2022/12/06 08:12:40;;;;;;;12.38;6.60;;;;;;;2.53;100.00;100757.94;6496736;22;20486;-77
2022/12/06 08:15:12;;;;;;;9.50;5.90;;;;;;;2.50;100.00;100756.22;6484672;22;19996;-77
2022/12/06 08:17:42;;;;;;;9.90;6.03;;;;;;;2.50;100.00;100760.53;6457622;22;20435;-77
2022/12/06 08:20:12;;;;;;;10.10;5.82;;;;;;;2.51;100.00;100770.81;6495601;22;20010;-77
2022/12/06 08:22:43;;;;;;;10.23;6.50;;;;;;;2.48;100.00;100765.69;6496762;22;19999;-77
2022/12/06 08:25:13;;;;;;;13.02;6.93;;;;;;;2.56;100.00;100773.41;6495963;22;20061;-76
2022/12/06 08:27:43;;;;;;;11.95;6.15;;;;;;;2.52;100.00;100776.84;6484332;22;20038;-77
2022/12/06 08:30:14;;;;;;;11.45;6.05;;;;;;;2.63;100.00;100775.13;6458174;22;20003;-78
2022/12/06 08:32:44;;;;;;;11.20;6.47;;;;;;;2.64;100.00;100782.88;6459061;22;20002;-75
2022/12/06 08:35:14;;;;;;;10.73;5.93;;;;;;;2.61;100.00;100776.84;6458507;22;20123;-78
2022/12/06 08:37:45;;;;;;;11.50;6.50;;;;;;;2.54;100.00;100780.28;6458713;22;20034;-78
2022/12/06 08:40:15;;;;;;;10.73;5.75;;;;;;;2.75;100.00;100776.00;6496206;22;20008;-78
2022/12/06 08:42:45;;;;;;;8.73;5.28;;;;;;;2.73;100.00;100776.84;6497137;22;20007;-77
2022/12/06 08:45:16;;;;;;;14.57;7.78;;;;;;;2.81;100.00;100769.94;6496079;22;20124;-77
2022/12/06 08:47:46;;;;;;;18.42;9.60;;;;;;;2.80;100.00;100783.69;6457949;22;20008;-78
2022/12/06 08:50:17;;;;;;;15.00;7.55;;;;;;;2.79;100.00;100787.16;6458804;22;20459;-77
2022/12/06 08:52:47;;;;;;;10.60;6.35;;;;;;;2.79;100.00;100787.16;6458353;22;20000;-78
2022/12/06 08:55:17;;;;;;;15.75;8.63;;;;;;;2.75;100.00;100800.91;6495625;22;19999;-78
2022/12/06 08:57:47;;;;;;;13.70;8.15;;;;;;;2.73;100.00;100775.13;6495724;22;20007;-78
2022/12/06 09:00:18;;;;;;;9.50;5.00;;;;;;;2.71;100.00;100789.72;6496637;22;20007;-78
2022/12/06 09:02:48;;;;;;;13.45;6.95;;;;;;;2.79;100.00;100787.16;6458620;22;20321;-77
2022/12/06 09:05:19;;;;;;;12.23;7.30;;;;;;;2.68;100.00;100783.72;6495442;22;20007;-77
2022/12/06 09:07:49;;;;;;;11.88;6.55;;;;;;;2.59;100.00;100786.31;6496854;22;20018;-76
2022/12/06 09:10:19;;;;;;;11.20;5.65;;;;;;;2.72;100.00;100788.03;6461497;22;20419;-78
2022/12/06 09:12:50;;;;;;;9.90;5.63;;;;;;;2.66;100.00;100795.78;6487007;22;20000;-77
2022/12/06 09:15:20;;;;;;;10.93;6.07;;;;;;;2.62;100.00;100792.31;6459748;22;20096;-78
2022/12/06 09:17:50;;;;;;;10.95;6.28;;;;;;;2.70;100.00;100790.59;6498233;22;20450;-78
2022/12/06 09:20:20;;;;;;;9.98;5.22;;;;;;;2.81;100.00;100795.75;6487933;22;20368;-79
2022/12/06 09:22:51;;;;;;;9.40;5.10;;;;;;;2.81;100.00;100799.19;6498005;22;20078;-79
2022/12/06 09:25:21;;;;;;;8.93;4.60;;;;;;;2.91;100.00;100795.75;6497429;22;20011;-78
2022/12/06 09:27:51;;;;;;;9.07;4.95;;;;;;;3.08;100.00;100795.72;6496708;22;20031;-78
2022/12/06 09:30:22;;;;;;;7.82;4.70;;;;;;;2.97;100.00;100789.69;6496908;22;20011;-78
2022/12/06 09:32:52;;;;;;;8.15;4.70;;;;;;;2.91;100.00;100794.88;6499092;22;20424;-78
2022/12/06 09:35:23;;;;;;;9.63;6.15;;;;;;;2.85;100.00;100795.75;6497440;22;20000;-78
2022/12/06 09:37:53;;;;;;;10.38;5.40;;;;;;;2.88;100.00;100789.72;6497127;22;20401;-78
2022/12/06 09:40:32;;;;;;;8.80;5.30;;;;;;;2.97;100.00;100789.69;6488860;22;20004;-78
2022/12/06 09:43:50;;;;;;;10.80;6.07;;;;;;;3.11;100.00;100794.00;6498683;22;20454;-78
2022/12/06 09:46:32;;;;;;;12.75;6.20;;;;;;;3.09;100.00;100787.97;6440594;22;20015;-78
2022/12/06 09:49:26;;;;;;;8.32;4.88;;;;;;;3.10;100.00;100784.53;6498030;22;20074;-78
2022/12/06 09:52:31;;;;;;;16.27;10.10;;;;;;;3.20;100.00;100785.38;6498512;22;19999;-78
2022/12/06 09:55:38;;;;;;;10.65;5.72;;;;;;;3.10;100.00;100783.66;6459137;22;20007;-78
2022/12/06 09:58:36;;;;;;;14.45;5.60;;;;;;;3.17;100.00;100788.81;6459516;22;20003;-78
2022/12/06 10:02:02;;;;;;;10.18;6.47;;;;;;;3.11;100.00;100787.94;6498433;22;20004;-78
2022/12/06 10:04:59;;;;;;;11.23;5.53;;;;;;;3.27;100.00;100777.59;6401414;23;20103;-76
2022/12/06 10:07:44;;;;;;;11.32;5.88;;;;;;;3.23;100.00;100780.19;6459820;22;20231;-79
2022/12/06 10:11:02;;;;;;;15.23;6.97;;;;;;;3.16;100.00;100775.91;6460678;22;20439;-77
2022/12/06 10:13:50;;;;;;;13.80;5.53;;;;;;;3.25;100.00;100768.13;6431561;23;20004;-77
2022/12/06 10:16:43;;;;;;;11.48;6.13;;;;;;;3.36;100.00;100772.38;6430736;23;20455;-77
2022/12/06 10:19:39;;;;;;;14.88;7.60;;;;;;;3.40;100.00;100771.50;6487452;22;20000;-77
2022/12/06 10:22:34;;;;;;;14.45;8.55;;;;;;;3.37;100.00;100774.09;6498262;22;20000;-78
2022/12/06 10:25:15;;;;;;;11.73;6.90;;;;;;;3.33;100.00;100771.56;6497420;22;20078;-78
2022/12/06 10:27:55;;;;;;;14.82;9.48;;;;;;;3.42;100.00;100769.81;6497538;22;20021;-78
2022/12/06 10:30:26;;;;;;;11.27;5.65;;;;;;;3.40;100.00;100768.06;6498087;22;20007;-77
2022/12/06 10:33:41;;;;;;;10.75;6.53;;;;;;;3.47;100.00;100770.63;6485509;22;20030;-77
2022/12/06 10:36:19;;;;;;;11.52;7.00;;;;;;;3.47;100.00;100770.63;6458649;22;20003;-79
2022/12/06 10:39:08;;;;;;;11.13;7.10;;;;;;;3.59;100.00;100771.44;6490706;22;20010;-79
2022/12/06 10:41:47;;;;;;;17.95;10.73;;;;;;;3.51;100.00;100766.31;6496360;22;20081;-78
2022/12/06 10:44:40;;;;;;;12.80;6.75;;;;;;;3.64;100.00;100764.50;6497130;22;20594;-79
2022/12/06 10:47:17;;;;;;;13.18;7.38;;;;;;;3.60;100.00;100761.97;6496080;22;20022;-78
2022/12/06 10:50:22;;;;;;;11.93;7.00;;;;;;;3.66;100.00;100755.06;6485922;22;19999;-77
2022/12/06 10:53:21;;;;;;;12.48;6.95;;;;;;;3.75;100.00;100748.97;6498328;22;19996;-78
2022/12/06 10:56:08;;;;;;;12.70;7.30;;;;;;;3.84;100.00;100746.31;6484010;22;20058;-77
2022/12/06 10:58:44;;;;;;;11.43;7.22;;;;;;;3.75;100.00;100751.56;6498257;22;20060;-78
2022/12/06 11:01:24;;;;;;;;;;;;;;;3.82;100.00;100754.06;6498635;22;20000;-78
2022/12/06 11:04:03;;;;;;;16.35;8.18;;;;;;;3.74;100.00;100742.94;6497342;22;19903;-78
2022/12/06 11:06:39;;;;;;;15.07;8.05;;;;;;;3.95;100.00;100747.97;6486538;22;20061;-78
2022/12/06 11:09:43;;;;;;;31.40;16.50;;;;;;;3.81;100.00;100742.00;6485568;22;19996;-78
2022/12/06 11:12:24;;;;;;;16.17;8.77;;;;;;;3.96;100.00;100736.75;6458361;22;20339;-79
2022/12/06 11:15:12;;;;;;;17.90;10.13;;;;;;;3.93;100.00;100747.13;6457695;22;20035;-78
2022/12/06 11:17:49;;;;;;;18.80;9.27;;;;;;;4.06;100.00;100737.56;6495304;22;20004;-78
2022/12/06 11:20:25;;;;;;;20.30;10.00;;;;;;;4.04;100.00;100742.75;6497622;22;20407;-77
2022/12/06 11:23:05;;;;;;;21.92;10.35;;;;;;;3.99;100.00;100736.72;6497106;22;20103;-78
2022/12/06 11:26:01;;;;;;;30.80;10.90;;;;;;;4.02;100.00;100741.91;6496226;22;20007;-78
2022/12/06 11:28:43;;;;;;;20.63;10.25;;;;;;;4.02;100.00;100733.28;6497290;22;20530;-78
2022/12/06 11:31:30;;;;;;;23.83;12.00;;;;;;;4.08;100.00;100734.09;6487265;22;19999;-78
2022/12/06 11:34:02;;;;;;;29.00;14.32;;;;;;;4.03;100.00;100738.44;6497701;22;20500;-78
2022/12/06 11:36:32;;;;;;;25.38;13.25;;;;;;;4.12;100.00;100722.84;6497202;22;20457;-78
2022/12/06 11:39:03;;;;;;;28.60;12.73;;;;;;;4.06;100.00;100722.03;6499695;22;20071;-78
2022/12/06 11:41:36;;;;;;;29.20;13.05;;;;;;;4.20;100.00;100725.38;6495753;22;20052;-78
2022/12/06 11:44:20;;;;;;;23.92;11.48;;;;;;;4.12;100.00;100728.03;6496261;22;19996;-78
2022/12/06 11:46:59;;;;;;;28.02;12.75;;;;;;;4.06;100.00;100724.63;6493871;22;20004;-78
2022/12/06 11:49:34;;;;;;;29.50;12.45;;;;;;;4.14;100.00;100725.44;6496959;22;20019;-77
2022/12/06 11:52:20;;;;;;;25.77;12.20;;;;;;;4.09;100.00;100720.31;6496675;22;20435;-78
2022/12/06 11:54:56;;;;;;;24.70;11.93;;;;;;;4.17;100.00;100715.94;6458427;22;20027;-78
2022/12/06 11:58:19;;;;;;;27.95;12.85;;;;;;;4.21;100.00;100716.75;6496836;22;20003;-77
2022/12/06 12:01:03;;;;;;;26.80;13.85;;;;;;;4.20;100.00;100710.75;6461104;22;20346;-78
2022/12/06 12:03:36;;;;;;;26.35;11.77;;;;;;;4.09;100.00;100712.53;6497164;22;20000;-77
2022/12/06 12:06:07;;;;;;;26.63;12.88;;;;;;;4.19;100.00;100713.31;6495984;22;20000;-78
2022/12/06 12:08:38;;;;;;;24.35;11.68;;;;;;;4.27;100.00;100708.97;6496532;22;19996;-78
2022/12/06 12:11:19;;;;;;;25.33;12.52;;;;;;;4.19;100.00;100714.19;6495918;22;20334;-77
2022/12/06 12:13:54;;;;;;;28.02;13.25;;;;;;;4.23;100.00;100715.88;6496274;22;20389;-78
2022/12/06 12:16:29;;;;;;;24.35;12.48;;;;;;;4.23;100.00;100705.53;6496024;22;20250;-78
2022/12/06 12:19:03;;;;;;;22.00;11.00;;;;;;;4.28;100.00;100706.34;6485541;22;20125;-78